Time;durP1;ratioP1;P1;durP2;ratioP2;P2;SDS_P1;SDS_P2;PMS_P1;PMS_P2;Temp;Humidity;BMP_temperature;BMP_pressure;BME280_temperature;BME280_humidity;BME280_pressure;Samples;Min_cycle;Max_cycle;Signal;HPM_P1;HPM_P2
2022/09/25 00:00:31;;;;;;;7.80;2.60;;;;;;;11.66;100.00;101431.38;5073250;28;20044;-63
2022/09/25 00:02:56;;;;;;;10.20;2.83;;;;;;;11.61;100.00;101431.38;5072884;28;20112;-61
2022/09/25 00:05:21;;;;;;;10.88;2.55;;;;;;;11.62;100.00;101434.88;5073158;28;20347;-62
2022/09/25 00:07:47;;;;;;;10.60;2.60;;;;;;;11.56;100.00;101438.44;5073205;28;20044;-61
2022/09/25 00:10:12;;;;;;;7.22;2.80;;;;;;;11.51;100.00;101446.34;5073030;28;20036;-63
2022/09/25 00:12:38;;;;;;;8.43;2.30;;;;;;;11.49;100.00;101449.84;5072697;28;20055;-62
2022/09/25 00:15:04;;;;;;;7.30;2.53;;;;;;;11.45;100.00;101449.00;5072877;28;20104;-61
2022/09/25 00:17:29;;;;;;;7.05;2.60;;;;;;;11.41;100.00;101447.28;5073013;28;20032;-61
2022/09/25 00:19:54;;;;;;;8.02;2.60;;;;;;;11.40;100.00;101449.94;5072777;28;20115;-61
2022/09/25 00:22:23;;;;;;;9.43;2.92;;;;;;;11.38;100.00;101463.03;5072735;28;20035;-61
2022/09/25 00:24:49;;;;;;;5.35;2.28;;;;;;;11.35;100.00;101446.47;5072703;28;20032;-60
2022/09/25 00:27:15;;;;;;;9.30;2.67;;;;;;;11.34;100.00;101455.19;5072581;28;20105;-62
2022/09/25 00:29:41;;;;;;;8.98;2.90;;;;;;;11.30;100.00;101454.34;5072437;28;20032;-62
2022/09/25 00:32:08;;;;;;;10.57;2.63;;;;;;;11.26;100.00;101447.38;5072511;28;20596;-61
2022/09/25 00:34:35;;;;;;;9.40;2.58;;;;;;;11.29;100.00;101447.34;5072526;28;20036;-61
2022/09/25 00:37:00;;;;;;;14.45;3.22;;;;;;;11.19;100.00;101429.97;5072587;28;20047;-62
2022/09/25 00:39:25;;;;;;;9.05;3.20;;;;;;;11.26;100.00;101446.50;5072463;28;20036;-60
2022/09/25 00:41:51;;;;;;;10.43;2.50;;;;;;;11.24;100.00;101451.78;5072198;28;20489;-61
2022/09/25 00:44:55;;;;;;;8.40;2.85;;;;;;;11.22;100.00;101447.44;5072285;28;20043;-62
2022/09/25 00:47:39;;;;;;;15.13;3.22;;;;;;;11.20;100.00;101447.44;5072055;28;20044;-61
2022/09/25 00:50:24;;;;;;;8.63;2.50;;;;;;;11.20;100.00;101436.97;5072184;28;20055;-62
2022/09/25 00:52:53;;;;;;;8.07;2.80;;;;;;;11.20;100.00;101436.97;5072239;28;20079;-62
2022/09/25 00:55:20;;;;;;;11.32;2.88;;;;;;;11.16;100.00;101448.31;5072093;28;20045;-63
2022/09/25 00:57:49;;;;;;;6.32;2.33;;;;;;;11.19;100.00;101448.31;5072002;28;20368;-61
2022/09/25 01:00:15;;;;;;;8.77;2.78;;;;;;;11.16;100.00;101441.34;5072070;28;20032;-63
2022/09/25 01:02:44;;;;;;;8.77;3.08;;;;;;;11.14;100.00;101448.34;5071910;28;20044;-62
2022/09/25 01:05:17;;;;;;;10.40;2.95;;;;;;;11.11;100.00;101450.09;5071978;28;20112;-59
2022/09/25 01:07:45;;;;;;;11.65;2.83;;;;;;;11.11;100.00;101457.94;5071891;28;20032;-61
2022/09/25 01:10:12;;;;;;;6.90;3.00;;;;;;;11.08;100.00;101456.22;5071968;28;20086;-62
2022/09/25 01:12:42;;;;;;;8.88;3.05;;;;;;;11.04;100.00;101448.41;5072109;28;20029;-63
2022/09/25 01:15:12;;;;;;;11.13;2.92;;;;;;;11.02;100.00;101447.53;5071954;28;20036;-63
2022/09/25 01:17:49;;;;;;;11.18;2.97;;;;;;;11.01;100.00;101451.03;5071931;28;20117;-62
2022/09/25 01:20:39;;;;;;;13.68;3.10;;;;;;;10.98;100.00;101446.69;5071922;28;20036;-61
2022/09/25 01:23:10;;;;;;;10.93;2.75;;;;;;;10.96;100.00;101450.19;5071782;28;20036;-61
2022/09/25 01:25:55;;;;;;;9.45;3.05;;;;;;;10.94;100.00;101452.81;5071669;28;20033;-60
2022/09/25 01:28:34;;;;;;;12.80;3.20;;;;;;;10.90;100.00;101458.09;5071789;28;20032;-62
2022/09/25 01:31:14;;;;;;;7.20;3.00;;;;;;;10.84;100.00;101451.13;5071874;28;20028;-60
2022/09/25 01:33:45;;;;;;;9.65;3.35;;;;;;;10.76;100.00;101455.50;5071584;28;20498;-62
2022/09/25 01:36:22;;;;;;;9.52;2.80;;;;;;;10.72;100.00;101459.91;5071679;28;20115;-61
2022/09/25 01:39:02;;;;;;;11.05;3.22;;;;;;;10.68;100.00;101452.94;5071605;28;20032;-60
2022/09/25 01:41:50;;;;;;;8.02;3.10;;;;;;;10.68;100.00;101463.41;5071575;28;20093;-61
2022/09/25 01:44:32;;;;;;;8.55;3.33;;;;;;;10.64;100.00;101466.91;5071565;28;20411;-61
2022/09/25 01:47:11;;;;;;;9.75;3.30;;;;;;;10.65;100.00;101479.13;5070936;28;20487;-60
2022/09/25 01:49:55;;;;;;;11.48;3.20;;;;;;;10.61;100.00;101466.03;5071490;28;20440;-61
2022/09/25 01:52:26;;;;;;;7.53;2.88;;;;;;;10.53;100.00;101476.56;5071603;28;20032;-62
2022/09/25 01:54:55;;;;;;;10.05;2.95;;;;;;;10.49;100.00;101476.56;5071729;28;20040;-61
2022/09/25 01:57:35;;;;;;;13.05;3.05;;;;;;;10.43;100.00;101475.69;5071063;28;20033;-62
2022/09/25 02:00:10;;;;;;;7.80;2.72;;;;;;;10.45;100.00;101480.94;5071377;28;20467;-62
2022/09/25 02:02:45;;;;;;;7.65;2.80;;;;;;;10.39;100.00;101471.34;5071346;28;20778;-61
2022/09/25 02:05:19;;;;;;;10.98;3.03;;;;;;;10.37;100.00;101473.13;5071534;28;20052;-62
2022/09/25 02:07:56;;;;;;;8.55;2.80;;;;;;;10.30;100.00;101471.38;5071905;28;20032;-60
2022/09/25 02:10:28;;;;;;;15.20;4.47;;;;;;;10.33;100.00;101479.22;5075373;28;20117;-61
2022/09/25 02:12:56;;;;;;;;;;;;;;;10.32;100.00;101479.22;5075835;28;20032;-61
2022/09/25 02:15:30;;;;;;;7.78;3.20;;;;;;;10.31;100.00;101472.25;5075202;28;19927;-61
2022/09/25 02:21:13;;;;;;;8.73;2.83;;;;;;;10.27;100.00;101463.53;5075344;28;20133;-61
2022/09/25 02:23:42;;;;;;;7.78;2.60;;;;;;;10.26;100.00;101472.25;5054817;28;20052;-61
2022/09/25 02:26:13;;;;;;;8.73;3.00;;;;;;;10.26;100.00;101468.75;5075025;28;20115;-61
2022/09/25 02:28:39;;;;;;;7.03;2.77;;;;;;;10.25;100.00;101467.88;5075037;28;20119;-62
2022/09/25 02:31:08;;;;;;;7.22;2.75;;;;;;;10.22;100.00;101475.75;5074988;28;20361;-62
2022/09/25 02:33:34;;;;;;;11.48;2.85;;;;;;;10.20;100.00;101471.41;5075087;28;20413;-60
2022/09/25 02:36:01;;;;;;;10.82;3.03;;;;;;;10.15;100.00;101470.50;5075009;28;20064;-63
2022/09/25 02:38:27;;;;;;;8.02;2.88;;;;;;;10.07;100.00;101463.53;5074843;28;20119;-62
2022/09/25 02:40:59;;;;;;;7.05;2.47;;;;;;;10.06;100.00;101476.59;5074775;28;20115;-61
2022/09/25 02:43:43;;;;;;;7.65;2.83;;;;;;;9.98;100.00;101476.63;5074621;28;20043;-62
2022/09/25 02:46:27;;;;;;;8.43;3.30;;;;;;;9.94;100.00;101479.25;5074819;28;20068;-61
2022/09/25 02:49:04;;;;;;;6.65;2.60;;;;;;;9.86;100.00;101479.25;5074560;28;20040;-61
2022/09/25 02:51:43;;;;;;;7.78;3.03;;;;;;;9.88;100.00;101474.00;5074565;28;20043;-61
2022/09/25 02:54:53;;;;;;;7.85;2.83;;;;;;;9.87;100.00;101474.91;5074632;28;20100;-62
2022/09/25 02:57:32;;;;;;;5.60;2.75;;;;;;;9.83;100.00;101463.56;5011865;28;20073;-62
2022/09/25 03:00:02;;;;;;;9.30;3.22;;;;;;;9.84;100.00;101454.88;5070863;28;20095;-61
2022/09/25 03:02:31;;;;;;;6.10;3.20;;;;;;;9.73;100.00;101441.78;5074300;28;20036;-62
2022/09/25 03:04:59;;;;;;;8.77;2.90;;;;;;;9.83;100.00;101457.47;5074393;28;20032;-60
2022/09/25 03:07:25;;;;;;;6.10;2.88;;;;;;;9.76;100.00;101452.25;5074396;28;20045;-62
2022/09/25 03:09:54;;;;;;;8.32;3.05;;;;;;;9.71;100.00;101453.09;5074104;28;20502;-61
2022/09/25 03:12:19;;;;;;;8.68;3.00;;;;;;;9.65;100.00;101453.13;5074061;28;20443;-61
2022/09/25 03:14:44;;;;;;;8.32;3.40;;;;;;;9.64;100.00;101460.09;5074303;28;20043;-62
2022/09/25 03:17:10;;;;;;;8.23;3.22;;;;;;;9.60;100.00;101460.06;5074215;28;20051;-60
2022/09/25 03:19:37;;;;;;;9.65;3.30;;;;;;;9.55;100.00;101459.19;5073570;28;20039;-60
2022/09/25 03:22:02;;;;;;;9.48;3.53;;;;;;;9.55;100.00;101460.06;5073949;28;20040;-60
2022/09/25 03:24:27;;;;;;;8.25;3.50;;;;;;;9.41;100.00;101456.56;5073792;28;20055;-61
2022/09/25 03:26:53;;;;;;;8.65;3.22;;;;;;;9.49;100.00;101457.47;5073913;28;20028;-61
2022/09/25 03:29:20;;;;;;;7.82;2.90;;;;;;;9.43;100.00;101467.91;5073706;28;20436;-61
2022/09/25 03:31:46;;;;;;;6.28;3.28;;;;;;;9.38;100.00;101457.44;5074030;28;20037;-60
2022/09/25 03:34:13;;;;;;;6.93;3.05;;;;;;;9.39;100.00;101467.00;5073805;28;20046;-62
2022/09/25 03:36:39;;;;;;;7.15;3.60;;;;;;;9.39;100.00;101466.16;5073758;28;20036;-60
2022/09/25 03:39:05;;;;;;;13.25;3.58;;;;;;;9.38;100.00;101467.00;5073490;28;20039;-60
2022/09/25 03:41:33;;;;;;;9.90;3.53;;;;;;;9.38;100.00;101472.25;5073435;28;20451;-61
2022/09/25 03:43:59;;;;;;;10.98;3.97;;;;;;;9.31;100.00;101465.28;5073401;28;20032;-61
2022/09/25 03:46:28;;;;;;;4.38;3.50;;;;;;;9.37;100.00;101455.69;5073529;28;20039;-61
2022/09/25 03:48:54;;;;;;;9.60;3.50;;;;;;;9.34;100.00;101455.72;5073427;28;20035;-60
2022/09/25 03:51:20;;;;;;;9.32;4.00;;;;;;;9.34;100.00;101462.69;5073340;28;20051;-60
2022/09/25 03:53:47;;;;;;;11.80;4.25;;;;;;;9.32;100.00;101461.81;5073290;28;20040;-62
2022/09/25 03:56:16;;;;;;;8.75;4.65;;;;;;;9.32;100.00;101469.63;5073407;28;20036;-59
2022/09/25 03:58:41;;;;;;;10.27;4.20;;;;;;;9.33;100.00;101460.94;5073377;28;20086;-61
2022/09/25 04:01:07;;;;;;;10.05;4.20;;;;;;;9.27;100.00;101466.13;5073278;28;20494;-62
2022/09/25 04:03:33;;;;;;;8.88;4.80;;;;;;;9.27;100.00;101467.00;5073320;28;20451;-60
2022/09/25 04:06:04;;;;;;;13.48;4.45;;;;;;;9.27;100.00;101464.41;5073101;28;20371;-62
2022/09/25 04:08:31;;;;;;;10.38;5.00;;;;;;;9.26;100.00;101470.50;5073034;28;20032;-61
2022/09/25 04:11:00;;;;;;;10.48;5.18;;;;;;;9.26;100.00;101467.88;5073024;28;20047;-60
2022/09/25 04:13:29;;;;;;;11.60;5.22;;;;;;;9.25;100.00;101462.66;5073020;28;20107;-62
2022/09/25 04:15:55;;;;;;;10.68;5.47;;;;;;;9.23;100.00;101460.03;5072997;28;20036;-61
2022/09/25 04:18:21;;;;;;;11.75;5.63;;;;;;;9.20;100.00;101462.63;5072960;28;20114;-60
2022/09/25 04:20:46;;;;;;;12.35;6.20;;;;;;;9.21;100.00;101456.53;5072849;28;20214;-60
2022/09/25 04:23:12;;;;;;;13.80;6.05;;;;;;;9.24;100.00;101455.69;5072628;28;20355;-61
2022/09/25 04:25:37;;;;;;;16.85;6.95;;;;;;;9.21;100.00;101456.53;5072730;28;20492;-62
2022/09/25 04:28:03;;;;;;;11.80;6.70;;;;;;;9.19;100.00;101453.03;5072841;28;20024;-62
2022/09/25 04:30:28;;;;;;;10.98;6.72;;;;;;;9.14;100.00;101444.34;5072016;28;20032;-61
2022/09/25 04:35:39;;;;;;;11.25;6.55;;;;;;;9.08;100.00;101453.03;5072294;28;20102;-62
2022/09/25 04:38:05;;;;;;;12.02;6.80;;;;;;;9.06;100.00;101460.00;5072529;28;20028;-61
2022/09/25 04:40:31;;;;;;;11.10;6.88;;;;;;;9.08;100.00;101463.47;5072715;28;20032;-60
2022/09/25 04:42:58;;;;;;;14.40;7.00;;;;;;;9.08;100.00;101463.47;5072551;28;20040;-60
2022/09/25 04:45:25;;;;;;;14.85;7.72;;;;;;;9.07;100.00;101463.47;5072389;28;20451;-61
2022/09/25 04:47:54;;;;;;;10.38;7.38;;;;;;;9.02;100.00;101460.84;5072127;28;20048;-61
2022/09/25 04:50:21;;;;;;;13.45;7.93;;;;;;;8.95;100.00;101455.63;5072173;28;20048;-61
2022/09/25 04:52:50;;;;;;;14.15;9.32;;;;;;;8.96;100.00;101458.22;5072536;28;20123;-61
2022/09/25 04:55:16;;;;;;;12.05;7.60;;;;;;;8.95;100.00;101455.63;5072126;28;20028;-61
2022/09/25 04:57:41;;;;;;;12.63;7.75;;;;;;;8.92;100.00;101451.25;5072314;28;20063;-61
2022/09/25 05:00:07;;;;;;;14.32;8.30;;;;;;;8.91;100.00;101449.50;5072109;28;20067;-61
2022/09/25 05:02:33;;;;;;;13.00;8.35;;;;;;;8.85;100.00;101446.88;5071839;28;20067;-61
2022/09/25 05:04:58;;;;;;;11.18;7.90;;;;;;;8.82;100.00;101444.28;5071891;28;20045;-60
2022/09/25 05:07:24;;;;;;;15.18;7.88;;;;;;;8.75;100.00;101444.22;5071872;28;20052;-60
2022/09/25 05:09:49;;;;;;;16.42;8.05;;;;;;;8.77;100.00;101446.00;5072019;28;20060;-59
2022/09/25 05:12:14;;;;;;;11.32;7.53;;;;;;;8.76;100.00;101445.97;5072105;28;20130;-59
2022/09/25 05:14:41;;;;;;;11.85;7.88;;;;;;;8.76;100.00;101461.63;5071766;28;20040;-62
2022/09/25 05:17:07;;;;;;;17.30;8.20;;;;;;;8.68;100.00;101443.31;5071614;28;20617;-62
2022/09/25 05:19:33;;;;;;;13.98;8.75;;;;;;;8.74;100.00;101445.97;5069971;28;20028;-59
2022/09/25 05:21:59;;;;;;;12.27;7.78;;;;;;;8.56;100.00;101418.06;5056850;28;20041;-62
2022/09/25 05:24:24;;;;;;;12.70;7.88;;;;;;;8.71;100.00;101443.34;5051797;28;20128;-60
2022/09/25 05:26:49;;;;;;;11.35;7.95;;;;;;;8.69;100.00;101445.94;5051724;28;20416;-60
2022/09/25 05:29:14;;;;;;;13.65;8.43;;;;;;;8.69;100.00;101443.34;5051684;28;20033;-61
2022/09/25 05:31:41;;;;;;;12.43;8.20;;;;;;;8.66;100.00;101439.84;5051691;28;20033;-60
2022/09/25 05:34:08;;;;;;;12.93;7.68;;;;;;;8.67;100.00;101438.97;5051639;28;20040;-60
2022/09/25 05:36:33;;;;;;;13.02;8.48;;;;;;;8.65;100.00;101438.13;5051890;28;20037;-60
2022/09/25 05:39:00;;;;;;;13.70;8.07;;;;;;;8.51;100.00;101418.91;5051408;28;20451;-59
2022/09/25 05:41:25;;;;;;;12.75;8.05;;;;;;;8.62;100.00;101444.19;5051294;28;20029;-60
2022/09/25 05:43:50;;;;;;;13.25;7.85;;;;;;;8.56;100.00;101438.94;5051688;28;20059;-62
2022/09/25 05:46:16;;;;;;;9.40;7.32;;;;;;;8.55;100.00;101445.03;5051731;28;20044;-59
2022/09/25 05:48:41;;;;;;;12.48;8.05;;;;;;;8.56;100.00;101444.16;5050006;28;20056;-61
2022/09/25 05:51:07;;;;;;;13.70;8.07;;;;;;;8.51;100.00;101435.44;5051567;28;20052;-60
2022/09/25 05:53:32;;;;;;;12.75;8.00;;;;;;;8.58;100.00;101450.25;5051260;28;20360;-59
2022/09/25 05:56:00;;;;;;;12.95;9.20;;;;;;;8.59;100.00;101454.63;5055226;28;20400;-63
2022/09/25 05:58:28;;;;;;;13.15;8.93;;;;;;;8.57;100.00;101453.72;5060189;28;20074;-61
2022/09/25 06:00:53;;;;;;;14.35;9.05;;;;;;;8.59;100.00;101465.06;5060034;28;20071;-61
2022/09/25 06:03:20;;;;;;;11.85;8.60;;;;;;;8.58;100.00;101459.81;5056084;28;20490;-59
2022/09/25 06:05:45;;;;;;;15.57;8.88;;;;;;;8.61;100.00;101459.84;5051430;28;20051;-60
2022/09/25 06:08:12;;;;;;;14.73;8.93;;;;;;;8.63;100.00;101471.16;5065453;28;20045;-62
2022/09/25 06:10:41;;;;;;;14.98;9.32;;;;;;;8.64;100.00;101465.94;5070024;28;20043;-62
2022/09/25 06:13:07;;;;;;;15.43;9.27;;;;;;;9.00;100.00;101459.97;5050896;28;20041;-64
2022/09/25 06:15:37;;;;;;;14.90;9.73;;;;;;;9.31;100.00;101453.09;5051152;28;20045;-59
2022/09/25 06:18:04;;;;;;;12.90;8.93;;;;;;;9.35;100.00;101460.03;5051037;28;20051;-60
2022/09/25 06:20:30;;;;;;;16.67;9.80;;;;;;;9.39;100.00;101461.78;5053417;28;20048;-60
2022/09/25 06:22:57;;;;;;;17.35;10.15;;;;;;;9.64;100.00;101456.59;5051484;28;20033;-66
2022/09/25 06:25:25;;;;;;;18.15;9.98;;;;;;;9.84;100.00;101457.47;5053560;28;20045;-62
2022/09/25 06:27:52;;;;;;;18.55;9.85;;;;;;;10.05;100.00;101464.41;5056858;28;20045;-60
2022/09/25 06:30:18;;;;;;;17.45;10.45;;;;;;;9.99;100.00;101461.81;5051050;28;20037;-62
2022/09/25 06:32:44;;;;;;;13.48;9.18;;;;;;;9.94;100.00;101456.56;5051089;28;20029;-63
2022/09/25 06:35:09;;;;;;;13.43;9.48;;;;;;;9.82;100.00;101461.81;5051148;28;20029;-63
2022/09/25 06:37:34;;;;;;;17.65;10.20;;;;;;;9.87;100.00;101462.66;5051145;28;20064;-63
2022/09/25 06:40:00;;;;;;;14.68;9.85;;;;;;;9.90;100.00;101459.19;5051115;28;20029;-64
2022/09/25 06:42:25;;;;;;;16.75;10.48;;;;;;;9.96;100.00;101462.69;5050936;28;20029;-64
2022/09/25 06:44:50;;;;;;;17.77;10.95;;;;;;;10.10;100.00;101465.28;5050838;28;20061;-63
2022/09/25 06:47:15;;;;;;;15.25;10.43;;;;;;;10.21;100.00;101441.78;5050780;28;20049;-61
2022/09/25 06:49:41;;;;;;;15.43;10.13;;;;;;;10.60;100.00;101454.69;5051066;28;20051;-64
2022/09/25 06:52:06;;;;;;;13.77;9.70;;;;;;;10.64;100.00;101456.44;5051044;28;20099;-61
2022/09/25 06:54:32;;;;;;;16.38;10.02;;;;;;;10.68;100.00;101458.19;5052641;28;20048;-63
2022/09/25 06:56:57;;;;;;;16.83;10.10;;;;;;;10.76;100.00;101456.38;5054543;28;20114;-62
2022/09/25 06:59:24;;;;;;;14.25;8.65;;;;;;;10.73;100.00;101448.56;5055270;28;20676;-62
2022/09/25 07:01:50;;;;;;;12.88;9.27;;;;;;;10.80;100.00;101468.59;5070259;28;20028;-61
2022/09/25 07:04:15;;;;;;;13.68;8.45;;;;;;;10.79;100.00;101468.59;5086714;28;20036;-62
2022/09/25 07:06:40;;;;;;;17.52;8.43;;;;;;;10.75;100.00;101472.09;5088644;28;20039;-61
2022/09/25 07:09:05;;;;;;;13.00;9.52;;;;;;;10.79;100.00;101465.97;5087658;28;20032;-62
2022/09/25 07:11:31;;;;;;;13.23;9.13;;;;;;;10.73;100.00;101466.03;5087339;28;20111;-62
2022/09/25 07:13:56;;;;;;;13.02;8.65;;;;;;;10.78;100.00;101474.69;5083386;28;20043;-61
2022/09/25 07:16:24;;;;;;;13.63;8.75;;;;;;;10.82;100.00;101477.31;5088063;28;20089;-61
2022/09/25 07:18:53;;;;;;;12.82;9.68;;;;;;;10.89;100.00;101472.94;5077409;28;20043;-61
2022/09/25 07:21:20;;;;;;;14.90;9.38;;;;;;;10.95;100.00;101472.00;5088381;28;20392;-61
2022/09/25 07:23:50;;;;;;;14.95;9.07;;;;;;;10.99;100.00;101474.63;5082708;28;20032;-60
2022/09/25 07:26:21;;;;;;;12.20;7.97;;;;;;;10.98;100.00;101482.47;5080500;28;20132;-60
2022/09/25 07:28:51;;;;;;;13.38;8.50;;;;;;;11.01;100.00;101479.84;5090441;28;20324;-61
2022/09/25 07:31:19;;;;;;;11.55;7.75;;;;;;;10.94;100.00;101478.13;5078935;28;20051;-61
2022/09/25 07:33:45;;;;;;;10.65;7.32;;;;;;;10.97;100.00;101481.59;5084721;28;20055;-61
2022/09/25 07:36:12;;;;;;;10.55;7.65;;;;;;;10.95;100.00;101477.25;5086478;28;20040;-62
2022/09/25 07:38:38;;;;;;;13.48;7.90;;;;;;;10.98;100.00;101487.72;5077186;28;20047;-62
2022/09/25 07:41:05;;;;;;;12.85;8.18;;;;;;;10.99;100.00;101487.72;5090059;28;20036;-59
2022/09/25 07:43:33;;;;;;;12.25;7.80;;;;;;;11.02;100.00;101478.97;5080357;28;20036;-60
2022/09/25 07:45:59;;;;;;;12.65;7.10;;;;;;;11.10;100.00;101479.78;5082485;28;20032;-60
2022/09/25 07:48:26;;;;;;;11.57;6.47;;;;;;;11.10;100.00;101480.66;5082180;28;20470;-60
2022/09/25 07:50:51;;;;;;;9.90;6.10;;;;;;;11.16;100.00;101483.25;5084506;28;20037;-60
2022/09/25 07:53:19;;;;;;;11.35;6.10;;;;;;;11.21;100.00;101479.75;5085979;28;20532;-60
2022/09/25 07:55:45;;;;;;;9.20;5.10;;;;;;;11.29;100.00;101481.41;5076638;28;20345;-60
2022/09/25 07:58:11;;;;;;;10.40;4.97;;;;;;;11.37;100.00;101476.16;5060254;28;20038;-60
2022/09/25 08:00:37;;;;;;;8.38;5.25;;;;;;;11.37;100.00;101474.41;5086051;28;20036;-62
2022/09/25 08:03:02;;;;;;;7.68;4.95;;;;;;;11.44;100.00;101472.59;5083431;28;20120;-61
2022/09/25 08:05:28;;;;;;;6.35;5.03;;;;;;;11.48;100.00;101469.06;5078984;28;20072;-61
2022/09/25 08:07:53;;;;;;;8.15;4.90;;;;;;;11.55;100.00;101469.91;5089632;28;20336;-60
2022/09/25 08:10:19;;;;;;;11.10;4.70;;;;;;;11.63;100.00;101470.69;5077102;28;20371;-60
2022/09/25 08:12:44;;;;;;;10.35;4.90;;;;;;;11.85;100.00;101472.31;5084908;28;20123;-60
2022/09/25 08:15:10;;;;;;;10.00;5.20;;;;;;;12.01;100.00;101470.41;5084550;28;20389;-61
2022/09/25 08:17:35;;;;;;;9.00;4.75;;;;;;;12.14;100.00;101458.91;5077519;28;20032;-60
2022/09/25 08:20:01;;;;;;;8.10;4.22;;;;;;;12.73;100.00;101460.88;5089516;28;20024;-61
2022/09/25 08:22:26;;;;;;;7.72;3.55;;;;;;;13.94;95.38;101454.72;5078345;28;20028;-62
2022/09/25 08:24:52;;;;;;;14.52;3.30;;;;;;;14.78;89.72;101456.63;5083396;28;20103;-61
2022/09/25 08:27:17;;;;;;;7.30;3.30;;;;;;;15.24;87.37;101455.63;5085306;28;20060;-61
2022/09/25 08:29:43;;;;;;;9.18;3.35;;;;;;;15.61;84.41;101458.28;5076221;28;20135;-61
2022/09/25 08:32:08;;;;;;;7.07;2.78;;;;;;;15.74;83.26;101456.25;5088990;28;20355;-62
2022/09/25 08:34:34;;;;;;;7.38;2.67;;;;;;;15.65;82.46;101460.81;5078924;28;20043;-62
2022/09/25 08:37:00;;;;;;;5.30;2.25;;;;;;;15.36;82.93;101459.75;5082270;28;20032;-62
2022/09/25 08:39:25;;;;;;;4.90;2.15;;;;;;;14.96;84.85;101456.25;5085896;28;20032;-61
2022/09/25 08:41:53;;;;;;;4.20;1.80;;;;;;;14.76;85.68;101463.69;5075745;28;20067;-61
2022/09/25 08:44:32;;;;;;;5.43;1.90;;;;;;;14.60;85.71;101462.28;5087755;28;20028;-62
2022/09/25 08:50:01;;;;;;;5.55;1.50;;;;;;;14.31;86.36;101475.13;5075771;28;20059;-62
2022/09/25 08:52:29;;;;;;;5.70;1.83;;;;;;;14.34;88.25;101473.31;5086589;28;20032;-62
2022/09/25 08:54:55;;;;;;;3.88;1.20;;;;;;;14.47;87.12;101477.47;5081821;28;20053;-61
2022/09/25 08:57:27;;;;;;;5.78;1.77;;;;;;;14.68;88.99;101470.91;5078922;28;20040;-61
2022/09/25 08:59:58;;;;;;;5.00;1.50;;;;;;;14.80;86.81;101470.66;5086338;28;20477;-61
2022/09/25 09:02:45;;;;;;;5.30;1.60;;;;;;;14.85;86.98;101460.88;5068225;28;20117;-60
2022/09/25 09:05:28;;;;;;;7.70;1.33;;;;;;;14.89;85.30;101457.25;5069983;28;20039;-61
2022/09/25 09:08:00;;;;;;;5.53;1.90;;;;;;;15.07;86.44;101456.00;5079787;28;20036;-63
2022/09/25 09:10:42;;;;;;;5.90;1.70;;;;;;;15.19;85.86;101462.78;5088354;28;20032;-62
2022/09/25 09:13:30;;;;;;;4.82;1.50;;;;;;;15.40;86.59;101461.44;5063078;28;20602;-62
2022/09/25 09:16:06;;;;;;;6.13;1.38;;;;;;;15.55;84.37;101454.06;5079430;28;20044;-61
2022/09/25 09:18:37;;;;;;;8.13;1.65;;;;;;;15.75;82.92;101448.28;5087563;28;20520;-61
2022/09/25 09:21:09;;;;;;;7.53;1.33;;;;;;;15.74;80.95;101449.19;5071783;28;20070;-62
2022/09/25 09:24:02;;;;;;;7.25;2.05;;;;;;;15.97;83.39;101453.88;5057686;28;20043;-61
2022/09/25 09:26:43;;;;;;;6.75;1.42;;;;;;;16.12;78.66;101448.19;5065454;28;20094;-62
2022/09/25 09:29:38;;;;;;;4.72;1.33;;;;;;;16.06;78.68;101447.50;5071483;28;20370;-62
2022/09/25 09:32:41;;;;;;;4.85;1.50;;;;;;;16.14;80.76;101454.28;5071133;28;20048;-61
2022/09/25 09:35:20;;;;;;;5.47;1.38;;;;;;;16.55;79.38;101460.22;5071143;28;20765;-62
2022/09/25 09:37:55;;;;;;;5.50;1.55;;;;;;;16.72;74.82;101450.06;5071183;28;20097;-60
2022/09/25 09:41:07;;;;;;;6.57;1.52;;;;;;;16.51;77.32;101453.28;5071271;28;20044;-60
2022/09/25 09:44:05;;;;;;;7.13;1.30;;;;;;;16.16;77.84;101444.56;5069059;28;20045;-59
2022/09/25 09:47:09;;;;;;;6.15;1.25;;;;;;;16.23;74.99;101445.28;5071383;28;20029;-61
2022/09/25 09:49:49;;;;;;;5.35;1.10;;;;;;;16.13;75.12;101443.75;5009271;28;20509;-62
2022/09/25 09:52:20;;;;;;;4.65;1.13;;;;;;;16.09;75.64;101439.50;5009103;28;20124;-60
2022/09/25 09:54:52;;;;;;;6.00;1.95;;;;;;;16.17;74.90;101440.16;5046297;28;20502;-61
2022/09/25 09:57:24;;;;;;;4.82;1.23;;;;;;;16.30;74.42;101434.47;5071188;28;20036;-62
2022/09/25 09:59:56;;;;;;;5.05;1.35;;;;;;;16.38;71.41;101431.63;5071630;28;20068;-61
2022/09/25 10:02:42;;;;;;;4.32;1.05;;;;;;;16.30;74.44;101423.03;5071592;28;20036;-62
2022/09/25 10:05:25;;;;;;;6.88;1.30;;;;;;;16.12;74.07;101429.69;5071593;28;20048;-62
2022/09/25 10:07:51;;;;;;;4.55;1.05;;;;;;;16.29;73.95;101432.75;5071328;28;20115;-63
2022/09/25 10:10:18;;;;;;;4.85;0.93;;;;;;;16.43;71.19;101437.66;5071363;28;20104;-62
2022/09/25 10:12:49;;;;;;;3.92;0.90;;;;;;;16.59;71.77;101430.16;5071483;28;20075;-60
2022/09/25 10:15:27;;;;;;;4.15;1.40;;;;;;;16.76;72.26;101430.56;5071071;28;20029;-60
2022/09/25 10:17:56;;;;;;;5.93;1.00;;;;;;;16.57;66.61;101424.94;5071221;28;20029;-62
2022/09/25 10:20:23;;;;;;;5.07;1.33;;;;;;;16.38;69.80;101423.72;5071316;28;20068;-53
2022/09/25 10:22:52;;;;;;;3.15;0.88;;;;;;;16.49;67.69;101423.41;5070829;28;20443;-50
2022/09/25 10:25:36;;;;;;;4.90;1.23;;;;;;;16.63;69.28;101426.53;5071350;28;20127;-50
2022/09/25 10:28:31;;;;;;;3.83;0.90;;;;;;;16.95;69.65;101420.31;5070825;28;20538;-49
2022/09/25 10:30:58;;;;;;;3.50;0.93;;;;;;;17.32;67.11;101425.28;5074939;28;20074;-51
2022/09/25 10:33:26;;;;;;;5.43;0.93;;;;;;;17.15;64.79;101422.31;5075011;28;20043;-51
2022/09/25 10:35:53;;;;;;;3.55;0.90;;;;;;;16.95;65.33;101420.31;5075074;28;20046;-52
2022/09/25 10:38:31;;;;;;;4.28;1.23;;;;;;;16.83;67.05;101416.25;5074896;28;20744;-53
2022/09/25 10:41:13;;;;;;;4.00;1.08;;;;;;;16.70;69.65;101425.47;5074684;28;20037;-54
2022/09/25 10:43:59;;;;;;;4.28;0.93;;;;;;;16.85;70.31;101414.44;5074629;28;20041;-50
2022/09/25 10:52:14;;;;;;;3.92;0.77;;;;;;;17.14;64.74;101423.25;5070023;28;20039;-50
2022/09/25 10:54:40;;;;;;;3.22;0.90;;;;;;;17.39;64.58;101417.13;5060657;28;20094;-50
2022/09/25 10:57:37;;;;;;;6.72;1.00;;;;;;;17.59;66.67;101413.81;5068332;28;20043;-50
2022/09/25 11:00:05;;;;;;;5.57;1.00;;;;;;;17.33;61.08;101419.09;5074394;28;20045;-49
2022/09/25 11:02:45;;;;;;;3.58;0.80;;;;;;;17.36;63.30;101409.28;5071097;28;20113;-50
2022/09/25 11:05:18;;;;;;;3.83;0.90;;;;;;;17.41;61.92;101411.78;5074253;28;20040;-52
2022/09/25 11:07:53;;;;;;;3.35;0.95;;;;;;;17.13;64.54;101413.59;5074244;28;20630;-50
2022/09/25 11:10:56;;;;;;;4.40;0.73;;;;;;;17.23;66.26;101413.25;5074068;28;20032;-48
2022/09/25 11:13:41;;;;;;;2.92;0.90;;;;;;;17.29;64.14;101410.41;5066901;28;20048;-48
2022/09/25 11:16:10;;;;;;;6.13;0.90;;;;;;;17.50;62.13;101413.25;5073285;28;20041;-51
2022/09/25 11:18:48;;;;;;;4.07;1.00;;;;;;;17.61;59.47;101414.66;5074060;28;20059;-51
2022/09/25 11:21:27;;;;;;;2.83;0.77;;;;;;;17.88;58.60;101409.34;5073991;28;20036;-52
2022/09/25 11:24:16;;;;;;;4.80;0.90;;;;;;;18.09;59.79;101413.91;5074028;28;20032;-50
2022/09/25 11:26:57;;;;;;;3.28;0.77;;;;;;;17.98;60.40;101408.13;5062227;28;20036;-52
2022/09/25 11:29:33;;;;;;;4.97;0.88;;;;;;;18.29;60.41;101395.50;5053885;28;20045;-50
2022/09/25 11:32:20;;;;;;;6.05;0.80;;;;;;;18.70;56.84;101396.63;5053956;28;20085;-50
2022/09/25 11:35:05;;;;;;;2.58;0.77;;;;;;;18.73;55.10;101403.59;5053845;28;20115;-50
2022/09/25 11:37:37;;;;;;;4.55;0.80;;;;;;;18.75;55.45;101396.47;5053877;28;20052;-48
2022/09/25 11:43:07;;;;;;;5.65;0.90;;;;;;;18.05;57.09;101399.91;5058152;28;20051;-51
2022/09/25 11:45:45;;;;;;;2.70;0.70;;;;;;;17.82;60.45;101394.56;5053343;28;20439;-51
2022/09/25 11:48:22;;;;;;;4.32;0.77;;;;;;;17.93;57.70;101386.22;5053464;28;20049;-50
2022/09/25 11:51:13;;;;;;;2.17;0.90;;;;;;;17.54;60.05;101397.22;5053606;28;20389;-51
2022/09/25 11:53:50;;;;;;;6.18;0.85;;;;;;;17.20;59.48;101391.31;5053118;28;20033;-50